GMME Airport Information

Runway Information
Runway 04 Length 11483 ft width 148 ft
Elevation 273 ft Threshold 0 ft Heading 31
Runway 22 Length 11483 ft Width 148 ft
Elevation 240 ft Threshold 0 ft Heading 211
Airport Frequencies
Type APP Name APP Frequency 118.9 MHZ
Type TWR Name TWR Frequency 118.3 MHZ
Airport Navaids
Type VOR-DME Name Rabat Frequency 116500 KHZ
Type NDB Name Rabat Frequency 332 KHZ
Airport Weather Information & NOTAM
ADDS - METARS form results

(1450 UTC 24 June 2021)
Data provider http://aviationweather.gov/metar/data/
 
METAR text: GMME 241430Z 33007KT 280V360 CAVOK 25/18 Q1013 NOSIG
Conditions at: GMME (RABAT/SALE (RMAF, MA) observed 1430 UTC 24 June 2021
Temperature: 25.0°C (77°F)
Dewpoint: 18.0°C (64°F) [RH = 65%]
Pressure (altimeter): 29.91 inches Hg (1013.0 mb)
Winds: from the NNW (330 degrees) at 8 MPH (7 knots; 3.6 m/s)
Visibility: 6 or more miles (10+ km)
Ceiling: ceiling and visibility are OK
Clouds: unknown
Weather: no significant weather observed at this time

METAR text: GMME 241400Z 31006KT 220V020 8000 NSC 25/17 Q1013 NOSIG
Conditions at: GMME (RABAT/SALE (RMAF, MA) observed 1400 UTC 24 June 2021
Temperature: 25.0°C (77°F)
Dewpoint: 17.0°C (63°F) [RH = 61%]
Pressure (altimeter): 29.91 inches Hg (1013.0 mb)
Winds: from the NW (310 degrees) at 7 MPH (6 knots; 3.1 m/s)
Visibility: 5 miles ( 8 km)
Ceiling: at least 12,000 feet AGL
Clouds: sky clear below 12,000 feet AGL
Weather: no significant weather observed at this time

Forecast for: GMME (RABAT/SALE (RMAF, MA)
Text: TAF GMME 241100Z 2412/2518 32010KT 9999 SCT016
Forecast period: 1200 to 1800 UTC 24 June 2021
Forecast type: FROM: standard forecast or significant change
Winds: from the NW (320 degrees) at 12 MPH (10 knots; 5.1 m/s)
Visibility: 6 or more miles (10+ km)
Ceiling: at least 12,000 feet AGL
Clouds: scattered clouds at 1600 feet AGL
Weather: no significant weather forecast for this period
Text: BECMG 2418/2421 24005KT 6000 BKN020
Forecast period: 1800 UTC 24 June 2021 to 1800 UTC 25 June 2021
Forecast type: BECOMING: Conditions expected to become as follows by 2100 UTC 24 June 2021
Winds: from the WSW (240 degrees) at 6 MPH (5 knots; 2.6 m/s)
Visibility: 4 miles (6 km)
Ceiling: 2000 feet AGL
Clouds: broken clouds at 2000 feet AGL
Weather: no significant weather forecast for this period